sensor_id;sensor_type;location;lat;lon;timestamp;temperature;humidity
9847;DHT22;68671;50.084;8.794;2023-04-07T00:01:57;11.90;99.90
9847;DHT22;68671;50.084;8.794;2023-04-07T00:04:24;11.80;99.90
9847;DHT22;68671;50.084;8.794;2023-04-07T00:06:51;11.90;99.90
9847;DHT22;68671;50.084;8.794;2023-04-07T00:09:19;11.90;99.90
9847;DHT22;68671;50.084;8.794;2023-04-07T00:11:46;11.90;99.90
9847;DHT22;68671;50.084;8.794;2023-04-07T00:14:13;11.90;99.90
9847;DHT22;68671;50.084;8.794;2023-04-07T00:16:40;11.90;99.90
9847;DHT22;68671;50.084;8.794;2023-04-07T00:19:08;11.90;99.90
9847;DHT22;68671;50.084;8.794;2023-04-07T00:21:35;11.90;99.90
9847;DHT22;68671;50.084;8.794;2023-04-07T00:24:02;11.90;99.90
9847;DHT22;68671;50.084;8.794;2023-04-07T00:26:30;11.90;99.90
9847;DHT22;68671;50.084;8.794;2023-04-07T00:28:57;12.00;99.90
9847;DHT22;68671;50.084;8.794;2023-04-07T00:31:24;12.00;99.90
9847;DHT22;68671;50.084;8.794;2023-04-07T00:33:51;12.10;99.90
9847;DHT22;68671;50.084;8.794;2023-04-07T00:36:18;12.30;99.90
9847;DHT22;68671;50.084;8.794;2023-04-07T00:38:45;12.20;99.90
9847;DHT22;68671;50.084;8.794;2023-04-07T00:41:12;12.20;99.90
9847;DHT22;68671;50.084;8.794;2023-04-07T00:43:41;12.30;99.90
9847;DHT22;68671;50.084;8.794;2023-04-07T00:46:08;12.40;99.90
9847;DHT22;68671;50.084;8.794;2023-04-07T00:48:35;12.40;99.90
9847;DHT22;68671;50.084;8.794;2023-04-07T00:51:03;12.50;99.90
9847;DHT22;68671;50.084;8.794;2023-04-07T00:53:31;12.50;99.90
9847;DHT22;68671;50.084;8.794;2023-04-07T00:55:58;12.60;99.90
9847;DHT22;68671;50.084;8.794;2023-04-07T00:58:25;12.70;99.90
9847;DHT22;68671;50.084;8.794;2023-04-07T01:00:58;12.80;99.90
9847;DHT22;68671;50.084;8.794;2023-04-07T01:03:32;12.90;99.90
9847;DHT22;68671;50.084;8.794;2023-04-07T01:06:01;12.90;99.90
9847;DHT22;68671;50.084;8.794;2023-04-07T01:08:41;13.00;99.90
9847;DHT22;68671;50.084;8.794;2023-04-07T01:11:16;13.00;99.90
9847;DHT22;68671;50.084;8.794;2023-04-07T01:13:49;13.00;99.90
9847;DHT22;68671;50.084;8.794;2023-04-07T01:16:22;13.10;99.90
9847;DHT22;68671;50.084;8.794;2023-04-07T01:18:53;13.10;99.90
9847;DHT22;68671;50.084;8.794;2023-04-07T01:21:22;13.10;99.90
9847;DHT22;68671;50.084;8.794;2023-04-07T01:24:09;13.10;99.90
9847;DHT22;68671;50.084;8.794;2023-04-07T01:26:39;13.10;99.90
9847;DHT22;68671;50.084;8.794;2023-04-07T01:29:33;13.10;99.90
9847;DHT22;68671;50.084;8.794;2023-04-07T01:32:05;13.20;99.90
9847;DHT22;68671;50.084;8.794;2023-04-07T01:34:33;13.20;99.90
9847;DHT22;68671;50.084;8.794;2023-04-07T01:37:01;13.20;99.90
9847;DHT22;68671;50.084;8.794;2023-04-07T01:39:29;13.20;99.90
9847;DHT22;68671;50.084;8.794;2023-04-07T01:41:57;13.20;99.90
9847;DHT22;68671;50.084;8.794;2023-04-07T01:44:26;13.20;99.90
9847;DHT22;68671;50.084;8.794;2023-04-07T01:46:56;13.20;99.90
9847;DHT22;68671;50.084;8.794;2023-04-07T01:49:24;13.20;99.90
9847;DHT22;68671;50.084;8.794;2023-04-07T01:51:52;13.20;99.90
9847;DHT22;68671;50.084;8.794;2023-04-07T01:54:20;13.30;99.90
9847;DHT22;68671;50.084;8.794;2023-04-07T01:56:47;13.20;99.90
9847;DHT22;68671;50.084;8.794;2023-04-07T01:59:14;13.20;99.90
9847;DHT22;68671;50.084;8.794;2023-04-07T02:01:41;13.20;99.90
9847;DHT22;68671;50.084;8.794;2023-04-07T02:04:11;13.30;99.90
9847;DHT22;68671;50.084;8.794;2023-04-07T02:06:43;13.30;99.90
9847;DHT22;68671;50.084;8.794;2023-04-07T02:09:16;13.40;99.90
9847;DHT22;68671;50.084;8.794;2023-04-07T02:11:45;13.30;99.90
9847;DHT22;68671;50.084;8.794;2023-04-07T02:14:12;13.30;99.90
9847;DHT22;68671;50.084;8.794;2023-04-07T02:16:40;13.30;99.90
9847;DHT22;68671;50.084;8.794;2023-04-07T02:19:09;13.30;99.90
9847;DHT22;68671;50.084;8.794;2023-04-07T02:21:38;13.40;99.90
9847;DHT22;68671;50.084;8.794;2023-04-07T02:24:06;13.40;99.90
9847;DHT22;68671;50.084;8.794;2023-04-07T02:26:34;13.40;99.90
9847;DHT22;68671;50.084;8.794;2023-04-07T02:29:01;13.40;99.90
9847;DHT22;68671;50.084;8.794;2023-04-07T02:31:28;13.40;99.90
9847;DHT22;68671;50.084;8.794;2023-04-07T02:33:55;13.40;99.90
9847;DHT22;68671;50.084;8.794;2023-04-07T02:36:29;13.40;99.90
9847;DHT22;68671;50.084;8.794;2023-04-07T02:38:57;13.40;99.90
9847;DHT22;68671;50.084;8.794;2023-04-07T02:41:24;13.40;99.90
9847;DHT22;68671;50.084;8.794;2023-04-07T02:43:52;13.40;99.90
9847;DHT22;68671;50.084;8.794;2023-04-07T02:46:18;13.40;99.90
9847;DHT22;68671;50.084;8.794;2023-04-07T02:48:45;13.40;99.90
9847;DHT22;68671;50.084;8.794;2023-04-07T02:51:12;13.40;99.90
9847;DHT22;68671;50.084;8.794;2023-04-07T02:53:41;13.40;99.90
9847;DHT22;68671;50.084;8.794;2023-04-07T02:56:08;13.50;99.90
9847;DHT22;68671;50.084;8.794;2023-04-07T02:58:35;13.50;99.90
9847;DHT22;68671;50.084;8.794;2023-04-07T03:01:02;13.50;99.90
9847;DHT22;68671;50.084;8.794;2023-04-07T03:03:29;13.50;99.90
9847;DHT22;68671;50.084;8.794;2023-04-07T03:05:56;13.50;99.90
9847;DHT22;68671;50.084;8.794;2023-04-07T03:08:23;13.50;99.90
9847;DHT22;68671;50.084;8.794;2023-04-07T03:10:52;13.50;99.90
9847;DHT22;68671;50.084;8.794;2023-04-07T03:13:20;13.40;99.90
9847;DHT22;68671;50.084;8.794;2023-04-07T03:15:47;13.40;99.90
9847;DHT22;68671;50.084;8.794;2023-04-07T03:18:13;13.40;99.90
9847;DHT22;68671;50.084;8.794;2023-04-07T03:20:40;13.40;99.90
9847;DHT22;68671;50.084;8.794;2023-04-07T03:23:09;13.40;99.90
9847;DHT22;68671;50.084;8.794;2023-04-07T03:25:36;13.30;99.90
9847;DHT22;68671;50.084;8.794;2023-04-07T03:28:04;13.30;99.90
9847;DHT22;68671;50.084;8.794;2023-04-07T03:30:31;13.30;99.90
9847;DHT22;68671;50.084;8.794;2023-04-07T03:32:58;13.30;99.90
9847;DHT22;68671;50.084;8.794;2023-04-07T03:35:25;13.30;99.90
9847;DHT22;68671;50.084;8.794;2023-04-07T03:37:52;13.30;99.90
9847;DHT22;68671;50.084;8.794;2023-04-07T03:40:19;13.30;99.90
9847;DHT22;68671;50.084;8.794;2023-04-07T03:42:47;13.20;99.90
9847;DHT22;68671;50.084;8.794;2023-04-07T03:45:15;13.20;99.90
9847;DHT22;68671;50.084;8.794;2023-04-07T03:47:43;13.20;99.90
9847;DHT22;68671;50.084;8.794;2023-04-07T03:50:10;13.20;99.90
9847;DHT22;68671;50.084;8.794;2023-04-07T03:52:37;13.20;99.90
9847;DHT22;68671;50.084;8.794;2023-04-07T03:55:05;13.20;99.90
9847;DHT22;68671;50.084;8.794;2023-04-07T03:57:33;13.20;99.90
9847;DHT22;68671;50.084;8.794;2023-04-07T04:00:00;13.20;99.90
9847;DHT22;68671;50.084;8.794;2023-04-07T04:02:28;13.20;99.90
9847;DHT22;68671;50.084;8.794;2023-04-07T04:04:55;13.20;99.90
9847;DHT22;68671;50.084;8.794;2023-04-07T04:07:22;13.20;99.90
9847;DHT22;68671;50.084;8.794;2023-04-07T04:09:50;13.20;99.90
9847;DHT22;68671;50.084;8.794;2023-04-07T04:12:17;13.20;99.90
9847;DHT22;68671;50.084;8.794;2023-04-07T04:14:44;13.20;99.90
9847;DHT22;68671;50.084;8.794;2023-04-07T04:17:11;13.20;99.90
9847;DHT22;68671;50.084;8.794;2023-04-07T04:19:39;13.30;99.90
9847;DHT22;68671;50.084;8.794;2023-04-07T04:22:06;13.20;99.90
9847;DHT22;68671;50.084;8.794;2023-04-07T04:24:36;13.20;99.90
9847;DHT22;68671;50.084;8.794;2023-04-07T04:27:03;13.20;99.90
9847;DHT22;68671;50.084;8.794;2023-04-07T04:29:31;13.20;99.90
9847;DHT22;68671;50.084;8.794;2023-04-07T04:31:58;13.20;99.90
9847;DHT22;68671;50.084;8.794;2023-04-07T04:34:25;13.20;99.90
9847;DHT22;68671;50.084;8.794;2023-04-07T04:36:54;13.10;99.90
9847;DHT22;68671;50.084;8.794;2023-04-07T04:39:21;13.20;99.90
9847;DHT22;68671;50.084;8.794;2023-04-07T04:41:48;13.10;99.90
9847;DHT22;68671;50.084;8.794;2023-04-07T04:44:15;13.10;99.90
9847;DHT22;68671;50.084;8.794;2023-04-07T04:46:42;13.10;99.90
9847;DHT22;68671;50.084;8.794;2023-04-07T04:49:09;13.10;99.90
9847;DHT22;68671;50.084;8.794;2023-04-07T04:51:36;13.20;99.90
9847;DHT22;68671;50.084;8.794;2023-04-07T04:54:07;13.20;99.90
9847;DHT22;68671;50.084;8.794;2023-04-07T04:56:34;13.20;99.90
9847;DHT22;68671;50.084;8.794;2023-04-07T04:59:01;13.20;99.90
9847;DHT22;68671;50.084;8.794;2023-04-07T05:01:28;13.20;99.90
9847;DHT22;68671;50.084;8.794;2023-04-07T05:07:17;13.20;99.90
9847;DHT22;68671;50.084;8.794;2023-04-07T05:09:46;13.20;99.90
9847;DHT22;68671;50.084;8.794;2023-04-07T05:12:13;13.10;99.90
9847;DHT22;68671;50.084;8.794;2023-04-07T05:14:41;13.20;99.90
9847;DHT22;68671;50.084;8.794;2023-04-07T05:17:07;13.20;99.90
9847;DHT22;68671;50.084;8.794;2023-04-07T05:19:35;13.10;99.90
9847;DHT22;68671;50.084;8.794;2023-04-07T05:22:02;13.20;99.90
9847;DHT22;68671;50.084;8.794;2023-04-07T05:24:29;13.20;99.90
9847;DHT22;68671;50.084;8.794;2023-04-07T05:26:58;13.20;99.90
9847;DHT22;68671;50.084;8.794;2023-04-07T05:29:26;13.20;99.90
9847;DHT22;68671;50.084;8.794;2023-04-07T05:31:53;13.20;99.90
9847;DHT22;68671;50.084;8.794;2023-04-07T05:34:20;13.10;99.90
9847;DHT22;68671;50.084;8.794;2023-04-07T05:36:47;13.00;99.90
9847;DHT22;68671;50.084;8.794;2023-04-07T05:39:17;13.00;99.90
9847;DHT22;68671;50.084;8.794;2023-04-07T05:41:44;13.00;99.90
9847;DHT22;68671;50.084;8.794;2023-04-07T05:44:12;13.00;99.90
9847;DHT22;68671;50.084;8.794;2023-04-07T05:46:39;12.90;99.90
9847;DHT22;68671;50.084;8.794;2023-04-07T05:49:06;12.90;99.90
9847;DHT22;68671;50.084;8.794;2023-04-07T05:51:33;12.90;99.90
9847;DHT22;68671;50.084;8.794;2023-04-07T05:54:01;12.80;99.90
9847;DHT22;68671;50.084;8.794;2023-04-07T05:56:28;12.80;99.90
9847;DHT22;68671;50.084;8.794;2023-04-07T05:58:55;12.80;99.90
9847;DHT22;68671;50.084;8.794;2023-04-07T06:01:25;12.70;99.90
9847;DHT22;68671;50.084;8.794;2023-04-07T06:03:52;12.70;99.90
9847;DHT22;68671;50.084;8.794;2023-04-07T06:06:19;12.70;99.90
9847;DHT22;68671;50.084;8.794;2023-04-07T06:08:46;12.70;99.90
9847;DHT22;68671;50.084;8.794;2023-04-07T06:11:13;12.70;99.90
9847;DHT22;68671;50.084;8.794;2023-04-07T06:13:40;12.70;99.90
9847;DHT22;68671;50.084;8.794;2023-04-07T06:16:07;12.70;99.90
9847;DHT22;68671;50.084;8.794;2023-04-07T06:18:35;12.80;99.90
9847;DHT22;68671;50.084;8.794;2023-04-07T06:21:05;12.80;99.90
9847;DHT22;68671;50.084;8.794;2023-04-07T06:23:32;12.80;99.90
9847;DHT22;68671;50.084;8.794;2023-04-07T06:25:59;12.90;99.90
9847;DHT22;68671;50.084;8.794;2023-04-07T06:28:29;12.90;99.90
9847;DHT22;68671;50.084;8.794;2023-04-07T06:30:56;12.90;99.90
9847;DHT22;68671;50.084;8.794;2023-04-07T06:33:23;13.00;99.90
9847;DHT22;68671;50.084;8.794;2023-04-07T06:35:54;13.00;99.90
9847;DHT22;68671;50.084;8.794;2023-04-07T06:38:24;13.00;99.90
9847;DHT22;68671;50.084;8.794;2023-04-07T06:40:51;13.10;99.90
9847;DHT22;68671;50.084;8.794;2023-04-07T06:43:18;13.10;99.90
9847;DHT22;68671;50.084;8.794;2023-04-07T06:45:45;13.10;99.90
9847;DHT22;68671;50.084;8.794;2023-04-07T06:48:12;13.20;99.90
9847;DHT22;68671;50.084;8.794;2023-04-07T06:50:39;13.20;99.90
9847;DHT22;68671;50.084;8.794;2023-04-07T06:53:10;13.20;99.90
9847;DHT22;68671;50.084;8.794;2023-04-07T06:55:37;13.30;99.90
9847;DHT22;68671;50.084;8.794;2023-04-07T06:58:04;13.30;99.90
9847;DHT22;68671;50.084;8.794;2023-04-07T07:00:31;13.30;99.90
9847;DHT22;68671;50.084;8.794;2023-04-07T07:02:58;13.30;99.90
9847;DHT22;68671;50.084;8.794;2023-04-07T07:05:25;13.40;99.90
9847;DHT22;68671;50.084;8.794;2023-04-07T07:07:52;13.40;99.90
9847;DHT22;68671;50.084;8.794;2023-04-07T07:10:21;13.40;99.90
9847;DHT22;68671;50.084;8.794;2023-04-07T07:12:48;13.30;99.90
9847;DHT22;68671;50.084;8.794;2023-04-07T07:15:15;13.30;99.90
9847;DHT22;68671;50.084;8.794;2023-04-07T07:17:42;13.40;99.90
9847;DHT22;68671;50.084;8.794;2023-04-07T07:20:10;13.30;99.90
9847;DHT22;68671;50.084;8.794;2023-04-07T07:22:37;13.30;99.90
9847;DHT22;68671;50.084;8.794;2023-04-07T07:25:07;13.30;99.90
9847;DHT22;68671;50.084;8.794;2023-04-07T07:27:35;13.30;99.90
9847;DHT22;68671;50.084;8.794;2023-04-07T07:30:04;13.40;99.90
9847;DHT22;68671;50.084;8.794;2023-04-07T07:32:31;13.40;99.90
9847;DHT22;68671;50.084;8.794;2023-04-07T07:34:58;13.40;99.90
9847;DHT22;68671;50.084;8.794;2023-04-07T07:37:25;13.40;99.90
9847;DHT22;68671;50.084;8.794;2023-04-07T07:39:52;13.40;99.90
9847;DHT22;68671;50.084;8.794;2023-04-07T07:42:20;13.50;99.90
9847;DHT22;68671;50.084;8.794;2023-04-07T07:44:49;13.50;99.90
9847;DHT22;68671;50.084;8.794;2023-04-07T07:47:16;13.50;99.90
9847;DHT22;68671;50.084;8.794;2023-04-07T07:49:43;13.50;99.90
9847;DHT22;68671;50.084;8.794;2023-04-07T07:52:10;13.60;99.90
9847;DHT22;68671;50.084;8.794;2023-04-07T07:54:37;13.60;99.90
9847;DHT22;68671;50.084;8.794;2023-04-07T07:57:04;13.60;99.90
9847;DHT22;68671;50.084;8.794;2023-04-07T07:59:31;13.60;99.90
9847;DHT22;68671;50.084;8.794;2023-04-07T08:02:02;13.60;99.90
9847;DHT22;68671;50.084;8.794;2023-04-07T08:04:30;13.60;99.90
9847;DHT22;68671;50.084;8.794;2023-04-07T08:06:57;13.60;99.90
9847;DHT22;68671;50.084;8.794;2023-04-07T08:09:28;13.60;99.90
9847;DHT22;68671;50.084;8.794;2023-04-07T08:11:58;13.60;99.90
9847;DHT22;68671;50.084;8.794;2023-04-07T08:14:30;13.60;99.90
9847;DHT22;68671;50.084;8.794;2023-04-07T08:17:07;13.70;99.90
9847;DHT22;68671;50.084;8.794;2023-04-07T08:19:35;13.80;99.90
9847;DHT22;68671;50.084;8.794;2023-04-07T08:22:03;13.80;99.90
9847;DHT22;68671;50.084;8.794;2023-04-07T08:24:35;13.80;99.90
9847;DHT22;68671;50.084;8.794;2023-04-07T08:27:07;13.80;99.90
9847;DHT22;68671;50.084;8.794;2023-04-07T08:29:58;13.90;99.90
9847;DHT22;68671;50.084;8.794;2023-04-07T08:32:39;13.90;99.90
9847;DHT22;68671;50.084;8.794;2023-04-07T08:35:15;13.90;99.90
9847;DHT22;68671;50.084;8.794;2023-04-07T08:37:52;14.00;99.90
9847;DHT22;68671;50.084;8.794;2023-04-07T08:40:20;13.90;99.90
9847;DHT22;68671;50.084;8.794;2023-04-07T08:42:48;13.90;99.90
9847;DHT22;68671;50.084;8.794;2023-04-07T08:45:16;13.90;99.90
9847;DHT22;68671;50.084;8.794;2023-04-07T08:47:52;13.90;99.90
9847;DHT22;68671;50.084;8.794;2023-04-07T08:50:31;13.80;99.90
9847;DHT22;68671;50.084;8.794;2023-04-07T08:53:00;13.90;99.90
9847;DHT22;68671;50.084;8.794;2023-04-07T08:55:29;14.00;99.90
9847;DHT22;68671;50.084;8.794;2023-04-07T08:58:00;14.00;99.90
9847;DHT22;68671;50.084;8.794;2023-04-07T09:00:33;14.10;99.90
9847;DHT22;68671;50.084;8.794;2023-04-07T09:03:09;14.10;99.90
9847;DHT22;68671;50.084;8.794;2023-04-07T09:05:38;14.10;99.90
9847;DHT22;68671;50.084;8.794;2023-04-07T09:08:07;14.20;99.90
9847;DHT22;68671;50.084;8.794;2023-04-07T09:10:35;14.20;99.90
9847;DHT22;68671;50.084;8.794;2023-04-07T09:13:02;14.20;99.90
9847;DHT22;68671;50.084;8.794;2023-04-07T09:15:39;14.20;99.90
9847;DHT22;68671;50.084;8.794;2023-04-07T09:18:13;14.20;99.90
9847;DHT22;68671;50.084;8.794;2023-04-07T09:20:57;14.20;99.90
9847;DHT22;68671;50.084;8.794;2023-04-07T09:23:30;14.20;99.90
9847;DHT22;68671;50.084;8.794;2023-04-07T09:25:58;14.20;99.90
9847;DHT22;68671;50.084;8.794;2023-04-07T09:28:39;14.20;99.90
9847;DHT22;68671;50.084;8.794;2023-04-07T09:31:06;14.20;99.90
9847;DHT22;68671;50.084;8.794;2023-04-07T09:33:35;14.20;99.90
9847;DHT22;68671;50.084;8.794;2023-04-07T09:36:03;14.20;99.90
9847;DHT22;68671;50.084;8.794;2023-04-07T09:38:35;14.20;99.90
9847;DHT22;68671;50.084;8.794;2023-04-07T09:41:11;14.20;99.90
9847;DHT22;68671;50.084;8.794;2023-04-07T09:43:46;14.20;99.90
9847;DHT22;68671;50.084;8.794;2023-04-07T09:46:16;14.20;99.90
9847;DHT22;68671;50.084;8.794;2023-04-07T09:49:09;14.10;99.90
9847;DHT22;68671;50.084;8.794;2023-04-07T09:51:36;14.10;99.90
9847;DHT22;68671;50.084;8.794;2023-04-07T09:54:03;14.20;99.90
9847;DHT22;68671;50.084;8.794;2023-04-07T09:56:31;14.10;99.90
9847;DHT22;68671;50.084;8.794;2023-04-07T09:58:59;14.10;99.90
9847;DHT22;68671;50.084;8.794;2023-04-07T10:01:26;14.10;99.90
9847;DHT22;68671;50.084;8.794;2023-04-07T10:03:53;14.10;99.90
9847;DHT22;68671;50.084;8.794;2023-04-07T10:06:22;14.10;99.90
9847;DHT22;68671;50.084;8.794;2023-04-07T10:08:50;14.10;99.90
9847;DHT22;68671;50.084;8.794;2023-04-07T10:11:16;14.20;99.90
9847;DHT22;68671;50.084;8.794;2023-04-07T10:13:44;14.10;99.90
9847;DHT22;68671;50.084;8.794;2023-04-07T10:16:11;14.20;99.90
9847;DHT22;68671;50.084;8.794;2023-04-07T10:18:39;14.20;99.90
9847;DHT22;68671;50.084;8.794;2023-04-07T10:21:06;14.20;99.90
9847;DHT22;68671;50.084;8.794;2023-04-07T10:23:46;14.20;99.90
9847;DHT22;68671;50.084;8.794;2023-04-07T10:26:16;14.20;99.90
9847;DHT22;68671;50.084;8.794;2023-04-07T10:28:46;14.30;99.90
9847;DHT22;68671;50.084;8.794;2023-04-07T10:31:15;14.30;99.90
9847;DHT22;68671;50.084;8.794;2023-04-07T10:33:48;14.20;99.90
9847;DHT22;68671;50.084;8.794;2023-04-07T10:36:16;14.20;99.90
9847;DHT22;68671;50.084;8.794;2023-04-07T10:39:22;14.20;99.90
9847;DHT22;68671;50.084;8.794;2023-04-07T10:41:54;14.20;99.90
9847;DHT22;68671;50.084;8.794;2023-04-07T10:44:43;14.20;99.90
9847;DHT22;68671;50.084;8.794;2023-04-07T10:47:12;14.30;99.90
9847;DHT22;68671;50.084;8.794;2023-04-07T10:52:45;14.30;99.90
9847;DHT22;68671;50.084;8.794;2023-04-07T10:55:39;14.40;99.90
9847;DHT22;68671;50.084;8.794;2023-04-07T10:58:27;14.30;99.90
9847;DHT22;68671;50.084;8.794;2023-04-07T11:01:28;14.40;99.90
9847;DHT22;68671;50.084;8.794;2023-04-07T11:03:59;14.40;99.90
9847;DHT22;68671;50.084;8.794;2023-04-07T11:06:26;14.40;99.90
9847;DHT22;68671;50.084;8.794;2023-04-07T11:08:54;14.40;99.90
9847;DHT22;68671;50.084;8.794;2023-04-07T11:11:45;14.40;99.90
9847;DHT22;68671;50.084;8.794;2023-04-07T11:14:24;14.50;99.90
9847;DHT22;68671;50.084;8.794;2023-04-07T11:16:52;14.40;99.90
9847;DHT22;68671;50.084;8.794;2023-04-07T11:19:19;14.50;99.90
9847;DHT22;68671;50.084;8.794;2023-04-07T11:21:46;14.50;99.90
9847;DHT22;68671;50.084;8.794;2023-04-07T11:24:32;14.60;99.90
9847;DHT22;68671;50.084;8.794;2023-04-07T11:27:00;14.60;99.90
9847;DHT22;68671;50.084;8.794;2023-04-07T11:29:28;14.60;99.90
9847;DHT22;68671;50.084;8.794;2023-04-07T11:31:57;14.60;99.90
9847;DHT22;68671;50.084;8.794;2023-04-07T11:34:28;14.60;99.90
9847;DHT22;68671;50.084;8.794;2023-04-07T11:36:55;14.70;99.90
9847;DHT22;68671;50.084;8.794;2023-04-07T11:39:25;14.70;99.90
9847;DHT22;68671;50.084;8.794;2023-04-07T11:41:56;14.80;99.90
9847;DHT22;68671;50.084;8.794;2023-04-07T11:44:25;14.80;99.90
9847;DHT22;68671;50.084;8.794;2023-04-07T11:46:52;14.80;99.90
9847;DHT22;68671;50.084;8.794;2023-04-07T11:49:20;14.90;99.90
9847;DHT22;68671;50.084;8.794;2023-04-07T11:51:56;14.90;99.90
9847;DHT22;68671;50.084;8.794;2023-04-07T11:54:26;14.90;99.90
9847;DHT22;68671;50.084;8.794;2023-04-07T11:56:53;14.90;99.90
9847;DHT22;68671;50.084;8.794;2023-04-07T11:59:24;14.90;99.90
9847;DHT22;68671;50.084;8.794;2023-04-07T12:01:53;14.90;99.90
9847;DHT22;68671;50.084;8.794;2023-04-07T12:04:28;14.90;99.90
9847;DHT22;68671;50.084;8.794;2023-04-07T12:07:06;15.00;99.90
9847;DHT22;68671;50.084;8.794;2023-04-07T12:09:36;15.10;99.90
9847;DHT22;68671;50.084;8.794;2023-04-07T12:12:04;15.10;99.90
9847;DHT22;68671;50.084;8.794;2023-04-07T12:14:34;15.10;99.90
9847;DHT22;68671;50.084;8.794;2023-04-07T12:17:02;15.10;99.90
9847;DHT22;68671;50.084;8.794;2023-04-07T12:19:32;15.10;99.90
9847;DHT22;68671;50.084;8.794;2023-04-07T12:22:00;15.10;99.90
9847;DHT22;68671;50.084;8.794;2023-04-07T12:24:27;15.10;99.90
9847;DHT22;68671;50.084;8.794;2023-04-07T12:26:53;15.10;99.90
9847;DHT22;68671;50.084;8.794;2023-04-07T12:29:21;15.10;99.90
9847;DHT22;68671;50.084;8.794;2023-04-07T12:31:50;15.20;99.90
9847;DHT22;68671;50.084;8.794;2023-04-07T12:34:17;15.20;99.90
9847;DHT22;68671;50.084;8.794;2023-04-07T12:36:44;15.20;99.90
9847;DHT22;68671;50.084;8.794;2023-04-07T12:39:11;15.30;99.90
9847;DHT22;68671;50.084;8.794;2023-04-07T12:41:38;15.40;99.90
9847;DHT22;68671;50.084;8.794;2023-04-07T12:44:05;15.30;99.90
9847;DHT22;68671;50.084;8.794;2023-04-07T12:46:32;15.30;99.90
9847;DHT22;68671;50.084;8.794;2023-04-07T12:49:01;15.30;99.90
9847;DHT22;68671;50.084;8.794;2023-04-07T12:51:28;15.20;99.90
9847;DHT22;68671;50.084;8.794;2023-04-07T12:53:57;15.30;99.90
9847;DHT22;68671;50.084;8.794;2023-04-07T12:56:25;15.20;99.90
9847;DHT22;68671;50.084;8.794;2023-04-07T12:58:52;15.20;99.90
9847;DHT22;68671;50.084;8.794;2023-04-07T13:01:19;15.20;99.90
9847;DHT22;68671;50.084;8.794;2023-04-07T13:03:46;15.00;99.90
9847;DHT22;68671;50.084;8.794;2023-04-07T13:06:15;14.90;99.90
9847;DHT22;68671;50.084;8.794;2023-04-07T13:08:42;14.60;99.90
9847;DHT22;68671;50.084;8.794;2023-04-07T13:11:09;14.30;99.90
9847;DHT22;68671;50.084;8.794;2023-04-07T13:13:36;14.00;99.90
9847;DHT22;68671;50.084;8.794;2023-04-07T13:16:03;13.90;99.90
9847;DHT22;68671;50.084;8.794;2023-04-07T13:18:36;13.90;99.90
9847;DHT22;68671;50.084;8.794;2023-04-07T13:21:20;13.80;99.90
9847;DHT22;68671;50.084;8.794;2023-04-07T13:23:54;13.70;99.90
9847;DHT22;68671;50.084;8.794;2023-04-07T13:26:29;13.60;99.90
9847;DHT22;68671;50.084;8.794;2023-04-07T13:29:16;13.50;99.90
9847;DHT22;68671;50.084;8.794;2023-04-07T13:32:05;13.60;99.90
9847;DHT22;68671;50.084;8.794;2023-04-07T13:34:46;13.70;99.90
9847;DHT22;68671;50.084;8.794;2023-04-07T13:37:26;13.70;99.90
9847;DHT22;68671;50.084;8.794;2023-04-07T13:39:59;13.70;99.90
9847;DHT22;68671;50.084;8.794;2023-04-07T13:42:35;13.70;99.90
9847;DHT22;68671;50.084;8.794;2023-04-07T13:45:11;13.70;99.90
9847;DHT22;68671;50.084;8.794;2023-04-07T13:47:46;13.70;99.90
9847;DHT22;68671;50.084;8.794;2023-04-07T13:50:20;13.70;99.90
9847;DHT22;68671;50.084;8.794;2023-04-07T13:53:00;13.70;99.90
9847;DHT22;68671;50.084;8.794;2023-04-07T13:55:33;13.70;99.90
9847;DHT22;68671;50.084;8.794;2023-04-07T13:58:17;13.80;99.90
9847;DHT22;68671;50.084;8.794;2023-04-07T14:00:49;13.80;99.90
9847;DHT22;68671;50.084;8.794;2023-04-07T14:03:24;13.80;99.90
9847;DHT22;68671;50.084;8.794;2023-04-07T14:06:01;13.80;99.90
9847;DHT22;68671;50.084;8.794;2023-04-07T14:08:52;13.90;99.90
9847;DHT22;68671;50.084;8.794;2023-04-07T14:11:24;14.00;99.90
9847;DHT22;68671;50.084;8.794;2023-04-07T14:14:02;14.10;99.90
9847;DHT22;68671;50.084;8.794;2023-04-07T14:16:34;14.10;99.90
9847;DHT22;68671;50.084;8.794;2023-04-07T14:19:05;14.20;99.90
9847;DHT22;68671;50.084;8.794;2023-04-07T14:21:40;14.30;99.90
9847;DHT22;68671;50.084;8.794;2023-04-07T14:24:32;14.30;99.90
9847;DHT22;68671;50.084;8.794;2023-04-07T14:27:08;14.30;99.90
9847;DHT22;68671;50.084;8.794;2023-04-07T14:29:40;14.30;99.90
9847;DHT22;68671;50.084;8.794;2023-04-07T14:32:16;14.30;99.90
9847;DHT22;68671;50.084;8.794;2023-04-07T14:34:51;14.30;99.90
9847;DHT22;68671;50.084;8.794;2023-04-07T14:37:18;14.40;99.90
9847;DHT22;68671;50.084;8.794;2023-04-07T14:39:53;14.30;99.90
9847;DHT22;68671;50.084;8.794;2023-04-07T14:42:43;14.30;99.90
9847;DHT22;68671;50.084;8.794;2023-04-07T14:45:17;14.30;99.90
9847;DHT22;68671;50.084;8.794;2023-04-07T14:47:58;14.30;99.90
9847;DHT22;68671;50.084;8.794;2023-04-07T14:50:25;14.30;99.90
9847;DHT22;68671;50.084;8.794;2023-04-07T14:52:52;14.30;99.90
9847;DHT22;68671;50.084;8.794;2023-04-07T14:55:22;14.30;99.90
9847;DHT22;68671;50.084;8.794;2023-04-07T14:57:49;14.30;99.90
9847;DHT22;68671;50.084;8.794;2023-04-07T15:00:16;14.30;99.90
9847;DHT22;68671;50.084;8.794;2023-04-07T15:02:49;14.40;99.90
9847;DHT22;68671;50.084;8.794;2023-04-07T15:05:18;14.50;99.90
9847;DHT22;68671;50.084;8.794;2023-04-07T15:07:47;14.60;99.90
9847;DHT22;68671;50.084;8.794;2023-04-07T15:10:27;14.70;99.90
9847;DHT22;68671;50.084;8.794;2023-04-07T15:13:05;14.80;99.90
9847;DHT22;68671;50.084;8.794;2023-04-07T15:15:40;14.80;99.90
9847;DHT22;68671;50.084;8.794;2023-04-07T15:18:17;15.00;99.90
9847;DHT22;68671;50.084;8.794;2023-04-07T15:20:49;14.90;99.90
9847;DHT22;68671;50.084;8.794;2023-04-07T15:23:19;14.80;99.90
9847;DHT22;68671;50.084;8.794;2023-04-07T15:25:55;14.80;99.90
9847;DHT22;68671;50.084;8.794;2023-04-07T15:28:22;14.70;99.90
9847;DHT22;68671;50.084;8.794;2023-04-07T15:30:52;14.70;99.90
9847;DHT22;68671;50.084;8.794;2023-04-07T15:33:20;14.60;99.90
9847;DHT22;68671;50.084;8.794;2023-04-07T15:38:41;14.50;99.90
9847;DHT22;68671;50.084;8.794;2023-04-07T15:41:24;14.40;99.90
9847;DHT22;68671;50.084;8.794;2023-04-07T15:44:10;14.40;99.90
9847;DHT22;68671;50.084;8.794;2023-04-07T15:46:50;14.40;99.90
9847;DHT22;68671;50.084;8.794;2023-04-07T15:49:30;14.30;99.90
9847;DHT22;68671;50.084;8.794;2023-04-07T15:52:08;14.30;99.90
9847;DHT22;68671;50.084;8.794;2023-04-07T15:54:43;14.30;99.90
9847;DHT22;68671;50.084;8.794;2023-04-07T15:57:11;14.30;99.90
9847;DHT22;68671;50.084;8.794;2023-04-07T15:59:41;14.40;99.90
9847;DHT22;68671;50.084;8.794;2023-04-07T16:02:09;14.50;99.90
9847;DHT22;68671;50.084;8.794;2023-04-07T16:04:36;14.50;99.90
9847;DHT22;68671;50.084;8.794;2023-04-07T16:07:03;14.60;99.90
9847;DHT22;68671;50.084;8.794;2023-04-07T16:09:30;14.70;99.90
9847;DHT22;68671;50.084;8.794;2023-04-07T16:11:58;14.80;99.90
9847;DHT22;68671;50.084;8.794;2023-04-07T16:14:28;14.80;99.90